createdAt,value
2019-01-19T00:01:08.821Z,93.03
2019-01-19T00:04:31.657Z,93.35
2019-01-19T00:07:37.999Z,93.46
2019-01-19T00:10:44.944Z,93.41
2019-01-19T00:13:51.502Z,93.18
2019-01-19T00:16:58.859Z,92.63
2019-01-19T00:20:00.981Z,92.15
2019-01-19T00:23:00.224Z,92.32
2019-01-19T00:26:12.361Z,92.72
2019-01-19T00:28:49.954Z,92.67
2019-01-19T00:31:54.945Z,92.78
2019-01-19T00:35:06.658Z,93.18
2019-01-19T00:37:58.604Z,92.83
2019-01-19T00:41:14.225Z,92.99
2019-01-19T00:43:51.147Z,92.93
2019-01-19T00:46:57.725Z,92.88
2019-01-19T00:49:37.889Z,92.87
2019-01-19T00:52:26.009Z,92.60
2019-01-19T00:55:38.667Z,92.57
2019-01-19T00:58:33.390Z,92.23
2019-01-19T01:01:50.237Z,92.21
2019-01-19T01:04:55.195Z,92.21
2019-01-19T01:08:10.851Z,92.21
2019-01-19T01:10:54.409Z,92.12
2019-01-19T01:14:03.752Z,92.09
2019-01-19T01:17:02.680Z,92.06
2019-01-19T01:19:59.329Z,92.33
2019-01-19T01:22:56.194Z,92.34
2019-01-19T01:26:18.143Z,92.30
2019-01-19T01:29:31.355Z,92.19
2019-01-19T01:32:14.779Z,91.87
2019-01-19T01:35:22.239Z,91.96
2019-01-19T01:38:14.942Z,92.11
2019-01-19T01:41:19.938Z,92.16
2019-01-19T01:44:30.139Z,92.33
2019-01-19T01:47:54.435Z,92.45
2019-01-19T01:51:01.092Z,92.39
2019-01-19T01:54:01.435Z,92.50
2019-01-19T01:56:31.151Z,92.44
2019-01-19T01:59:12.819Z,92.77
2019-01-19T02:02:16.444Z,92.66
2019-01-19T02:05:25.238Z,92.98
2019-01-19T02:08:24.052Z,92.65
2019-01-19T02:11:24.678Z,92.44
2019-01-19T02:14:27.988Z,92.35
2019-01-19T02:17:53.939Z,92.61
2019-01-19T02:20:38.896Z,92.86
2019-01-19T02:23:45.585Z,93.06
2019-01-19T02:27:01.514Z,92.87
2019-01-19T02:29:56.099Z,92.78
2019-01-19T02:33:03.529Z,92.75
2019-01-19T02:36:12.832Z,92.90
2019-01-19T02:39:27.267Z,92.99
2019-01-19T02:42:33.350Z,92.84
2019-01-19T02:45:37.416Z,92.62
2019-01-19T02:48:51.861Z,92.69
2019-01-19T02:51:56.642Z,92.64
2019-01-19T02:55:22.596Z,92.76
2019-01-19T02:58:27.830Z,92.39
2019-01-19T03:01:37.387Z,92.39
2019-01-19T03:04:56.971Z,92.50
2019-01-19T03:07:44.516Z,92.22
2019-01-19T03:10:47.836Z,92.38
2019-01-19T03:13:47.890Z,91.92
2019-01-19T03:17:13.857Z,91.55
2019-01-19T03:20:17.711Z,91.17
2019-01-19T03:23:13.781Z,91.19
2019-01-19T03:26:11.321Z,91.33
2019-01-19T03:29:20.757Z,91.34
2019-01-19T03:32:25.909Z,91.15
2019-01-19T03:35:27.993Z,91.38
2019-01-19T03:38:40.311Z,91.21
2019-01-19T03:41:49.518Z,91.03
2019-01-19T03:45:21.041Z,90.99
2019-01-19T03:48:06.411Z,90.69
2019-01-19T03:51:22.069Z,90.72
2019-01-19T03:53:56.757Z,90.40
2019-01-19T03:56:49.131Z,90.62
2019-01-19T03:59:56.231Z,90.75
2019-01-19T04:03:01.287Z,90.36
2019-01-19T04:06:12.604Z,90.47
2019-01-19T04:09:16.050Z,90.49
2019-01-19T04:12:53.756Z,90.43
2019-01-19T04:15:58.901Z,90.35
2019-01-19T04:18:59.639Z,90.05
2019-01-19T04:22:08.419Z,90.10
2019-01-19T04:25:24.630Z,90.45
2019-01-19T04:27:53.939Z,90.21
2019-01-19T04:30:22.973Z,90.30
2019-01-19T04:32:52.141Z,90.29
2019-01-19T04:35:21.701Z,90.43
2019-01-19T04:37:51.121Z,90.40
2019-01-19T04:40:20.143Z,90.34
2019-01-19T04:42:49.449Z,90.43
2019-01-19T04:45:18.516Z,90.17
2019-01-19T04:47:48.825Z,90.32
2019-01-19T04:50:18.320Z,89.94
2019-01-19T04:52:47.765Z,90.01
2019-01-19T04:55:16.771Z,90.09
2019-01-19T04:57:46.957Z,89.97
2019-01-19T05:00:18.215Z,89.93
2019-01-19T05:02:48.832Z,89.92
2019-01-19T05:05:17.855Z,89.89
2019-01-19T05:07:46.865Z,89.56
2019-01-19T05:10:16.898Z,89.62
2019-01-19T05:12:46.505Z,89.93
2019-01-19T05:15:20.763Z,89.11
2019-01-19T05:17:50.681Z,89.21
2019-01-19T05:20:19.972Z,89.64
2019-01-19T05:22:49.119Z,89.63
2019-01-19T05:25:18.532Z,89.70
2019-01-19T05:27:47.919Z,89.92
2019-01-19T05:30:19.779Z,89.41
2019-01-19T05:32:48.909Z,89.14
2019-01-19T05:35:17.991Z,89.31
2019-01-19T05:37:47.419Z,89.29
2019-01-19T05:40:16.522Z,89.45
2019-01-19T05:42:45.984Z,89.29
2019-01-19T05:45:16.042Z,89.58
2019-01-19T05:47:45.098Z,89.73
2019-01-19T05:50:17.106Z,90.36
2019-01-19T05:52:46.357Z,89.89
2019-01-19T05:55:15.802Z,90.23
2019-01-19T05:57:44.845Z,90.31
2019-01-19T06:00:19.901Z,90.31
2019-01-19T06:02:49.333Z,90.25
2019-01-19T06:05:18.935Z,90.29
2019-01-19T06:07:48.717Z,90.22
2019-01-19T06:10:18.330Z,90.33
2019-01-19T06:12:47.375Z,90.12
2019-01-19T06:15:16.909Z,90.34
2019-01-19T06:17:45.939Z,90.29
2019-01-19T06:20:15.975Z,90.32
2019-01-19T06:22:45.472Z,90.57
2019-01-19T06:25:15.642Z,90.89
2019-01-19T06:27:45.095Z,90.91
2019-01-19T06:30:19.914Z,91.00
2019-01-19T06:32:49.095Z,90.96
2019-01-19T06:35:18.250Z,91.05
2019-01-19T06:37:47.989Z,91.01
2019-01-19T06:40:18.051Z,91.19
2019-01-19T06:42:47.241Z,91.21
2019-01-19T06:45:21.795Z,91.12
2019-01-19T06:47:50.907Z,91.17
2019-01-19T06:50:19.905Z,91.09
2019-01-19T06:52:49.265Z,90.91
2019-01-19T06:55:20.881Z,90.88
2019-01-19T06:57:50.315Z,90.98
2019-01-19T07:00:20.486Z,91.29
2019-01-19T07:02:49.564Z,90.86
2019-01-19T07:05:18.623Z,90.80
2019-01-19T07:07:48.630Z,90.72
2019-01-19T07:10:19.872Z,90.76
2019-01-19T07:12:48.873Z,90.73
2019-01-19T07:15:17.931Z,90.68
2019-01-19T07:17:47.031Z,90.47
2019-01-19T07:20:22.031Z,90.59
2019-01-19T07:22:51.060Z,90.71
2019-01-19T07:25:20.457Z,90.60
2019-01-19T07:27:49.889Z,90.44
2019-01-19T07:30:19.695Z,90.44
2019-01-19T07:32:48.841Z,90.44
2019-01-19T07:35:17.972Z,90.30
2019-01-19T07:37:47.019Z,90.23
2019-01-19T07:40:17.161Z,90.25
2019-01-19T07:42:47.126Z,90.02
2019-01-19T07:45:17.183Z,89.73
2019-01-19T07:47:46.284Z,89.33
2019-01-19T07:50:16.972Z,89.32
2019-01-19T07:52:46.460Z,89.72
2019-01-19T07:55:16.555Z,89.42
2019-01-19T07:57:45.979Z,89.50
2019-01-19T08:00:26.654Z,89.52
2019-01-19T08:02:56.057Z,89.27
2019-01-19T08:05:25.076Z,88.95
2019-01-19T08:07:54.193Z,88.88
2019-01-19T08:10:23.657Z,88.21
2019-01-19T08:12:52.971Z,88.54
2019-01-19T08:15:23.984Z,87.76
2019-01-19T08:17:52.984Z,87.12
2019-01-19T08:20:22.232Z,86.91
2019-01-19T08:22:51.795Z,87.33
2019-01-19T08:25:20.980Z,86.90
2019-01-19T08:27:50.088Z,87.08
2019-01-19T08:30:22.541Z,87.19
2019-01-19T08:32:51.855Z,86.77
2019-01-19T08:35:21.022Z,86.39
2019-01-19T08:37:50.953Z,86.22
2019-01-19T08:40:25.442Z,86.62
2019-01-19T08:43:07.991Z,86.33
2019-01-19T08:45:37.147Z,85.21
2019-01-19T08:48:06.468Z,85.25
2019-01-19T08:50:35.607Z,84.33
2019-01-19T08:53:04.999Z,84.10
2019-01-19T08:55:34.315Z,81.83
2019-01-19T08:58:03.359Z,80.07
2019-01-19T09:00:32.397Z,77.52
2019-01-19T09:03:01.563Z,76.20
2019-01-19T09:05:30.655Z,77.74
2019-01-19T09:07:59.787Z,76.89
2019-01-19T09:10:28.851Z,74.40
2019-01-19T09:12:58.327Z,72.88
2019-01-19T09:15:27.345Z,75.05
2019-01-19T09:17:56.712Z,74.85
2019-01-19T09:20:25.772Z,75.30
2019-01-19T09:22:59.467Z,76.33
2019-01-19T09:25:28.855Z,76.97
2019-01-19T09:27:58.911Z,78.57
2019-01-19T09:30:28.096Z,79.39
2019-01-19T09:32:57.694Z,77.78
2019-01-19T09:35:27.335Z,77.03
2019-01-19T09:37:56.421Z,74.87
2019-01-19T09:40:25.931Z,74.91
2019-01-19T09:42:54.988Z,74.56
2019-01-19T09:45:24.049Z,73.55
2019-01-19T09:47:53.097Z,73.31
2019-01-19T09:50:22.781Z,73.04
2019-01-19T09:52:52.544Z,71.51
2019-01-19T09:55:22.907Z,71.59
2019-01-19T09:57:51.931Z,69.60
2019-01-19T10:00:22.114Z,69.83
2019-01-19T10:02:51.144Z,68.75
2019-01-19T10:05:21.667Z,72.64
2019-01-19T10:07:50.731Z,73.37
2019-01-19T10:10:19.724Z,73.14
2019-01-19T10:12:49.078Z,75.44
2019-01-19T10:15:18.182Z,75.27
2019-01-19T10:17:47.621Z,74.55
2019-01-19T10:20:19.206Z,72.00
2019-01-19T10:22:48.649Z,72.47
2019-01-19T10:25:18.172Z,71.16
2019-01-19T10:27:47.173Z,70.35
2019-01-19T10:30:18.589Z,67.89
2019-01-19T10:32:47.693Z,65.80
2019-01-19T10:35:16.977Z,65.36
2019-01-19T10:37:46.061Z,64.73
2019-01-19T10:40:15.674Z,64.00
2019-01-19T10:42:45.258Z,63.46
2019-01-19T10:45:16.932Z,63.19
2019-01-19T10:47:46.370Z,62.29
2019-01-19T10:50:16.332Z,62.00
2019-01-19T10:52:45.384Z,60.96
2019-01-19T10:55:18.878Z,60.84
2019-01-19T10:57:48.283Z,60.12
2019-01-19T11:00:19.899Z,59.63
2019-01-19T11:02:48.921Z,60.82
2019-01-19T11:05:17.962Z,59.51
2019-01-19T11:07:48.078Z,59.23
2019-01-19T11:10:19.360Z,59.21
2019-01-19T11:12:48.382Z,59.21
2019-01-19T11:15:18.158Z,60.56
2019-01-19T11:17:47.422Z,59.84
2019-01-19T11:20:18.838Z,61.16
2019-01-19T11:22:48.476Z,60.46
2019-01-19T11:25:17.578Z,61.10
2019-01-19T11:27:47.086Z,60.01
2019-01-19T11:30:21.652Z,58.03
2019-01-19T11:32:51.028Z,56.39
2019-01-19T11:35:20.476Z,56.69
2019-01-19T11:37:49.511Z,54.20
2019-01-19T11:40:27.234Z,56.04
2019-01-19T11:42:57.795Z,55.81
2019-01-19T11:45:26.910Z,54.47
2019-01-19T11:47:55.974Z,55.21
2019-01-19T11:50:25.332Z,56.21
2019-01-19T11:52:54.396Z,58.28
2019-01-19T11:55:24.416Z,58.28
2019-01-19T11:57:59.294Z,57.40
2019-01-19T12:00:29.870Z,57.07
2019-01-19T12:02:58.882Z,55.83
2019-01-19T12:05:27.943Z,58.28
2019-01-19T12:07:56.978Z,60.77
2019-01-19T12:10:28.060Z,60.77
2019-01-19T12:12:57.672Z,60.87
2019-01-19T12:15:27.286Z,59.73
2019-01-19T12:17:56.406Z,60.43
2019-01-19T12:20:37.420Z,61.65
2019-01-19T12:23:07.624Z,62.99
2019-01-19T12:25:36.706Z,60.48
2019-01-19T12:28:05.940Z,60.21
2019-01-19T12:30:35.309Z,59.85
2019-01-19T12:33:04.702Z,59.07
2019-01-19T12:35:33.940Z,61.41
2019-01-19T12:38:03.318Z,60.88
2019-01-19T12:40:32.332Z,63.30
2019-01-19T12:43:04.157Z,64.89
2019-01-19T12:45:39.889Z,66.36
2019-01-19T12:48:09.327Z,66.53
2019-01-19T12:50:38.425Z,68.43
2019-01-19T12:53:08.135Z,65.99
2019-01-19T12:55:37.274Z,66.29
2019-01-19T12:58:07.676Z,64.42
2019-01-19T13:00:37.057Z,63.79
2019-01-19T13:03:07.982Z,65.92
2019-01-19T13:05:54.036Z,68.23
2019-01-19T13:08:24.054Z,67.07
2019-01-19T13:11:07.966Z,66.93
2019-01-19T13:13:45.030Z,68.32
2019-01-19T13:17:09.426Z,67.78
2019-01-19T13:19:57.466Z,68.51
2019-01-19T13:23:02.800Z,66.90
2019-01-19T13:26:19.163Z,67.61
2019-01-19T13:29:27.853Z,68.43
2019-01-19T13:32:28.875Z,67.96
2019-01-19T13:35:44.778Z,67.01
2019-01-19T13:38:48.995Z,66.28
2019-01-19T13:41:59.154Z,67.28
2019-01-19T13:44:46.992Z,65.92
2019-01-19T13:47:51.937Z,65.42
2019-01-19T13:50:58.268Z,67.55
2019-01-19T13:53:41.518Z,66.44
2019-01-19T13:56:38.898Z,67.36
2019-01-19T13:59:24.368Z,65.42
2019-01-19T14:02:20.304Z,66.51
2019-01-19T14:05:04.344Z,66.32
2019-01-19T14:08:03.383Z,65.81
2019-01-19T14:11:16.745Z,64.92
2019-01-19T14:14:10.686Z,64.54
2019-01-19T14:17:17.002Z,64.08
2019-01-19T14:20:05.934Z,64.31
2019-01-19T14:23:11.312Z,64.06
2019-01-19T14:26:27.979Z,63.55
2019-01-19T14:29:38.254Z,62.67
2019-01-19T14:32:57.626Z,63.10
2019-01-19T14:35:53.945Z,61.93
2019-01-19T14:39:06.608Z,63.14
2019-01-19T14:42:06.345Z,62.82
2019-01-19T14:45:20.324Z,64.13
2019-01-19T14:48:35.116Z,65.16
2019-01-19T14:51:28.880Z,66.56
2019-01-19T14:54:24.964Z,67.04
2019-01-19T14:57:18.170Z,67.83
2019-01-19T15:00:31.554Z,67.85
2019-01-19T15:03:32.797Z,68.75
2019-01-19T15:06:44.495Z,69.48
2019-01-19T15:10:03.983Z,67.91
2019-01-19T15:12:59.990Z,67.21
2019-01-19T15:16:04.426Z,68.12
2019-01-19T15:19:33.022Z,67.71
2019-01-19T15:22:43.124Z,68.19
2019-01-19T15:25:59.522Z,68.65
2019-01-19T15:29:21.106Z,70.07
2019-01-19T15:32:26.039Z,72.14
2019-01-19T15:35:30.988Z,72.56
2019-01-19T15:38:22.277Z,73.44
2019-01-19T15:41:09.290Z,73.76
2019-01-19T15:44:09.944Z,74.53
2019-01-19T15:47:22.234Z,74.95
2019-01-19T15:50:16.011Z,75.84
2019-01-19T15:53:09.753Z,76.43
2019-01-19T15:56:02.556Z,76.54
2019-01-19T15:58:59.389Z,76.78
2019-01-19T16:02:06.936Z,77.45
2019-01-19T16:05:06.324Z,77.30
2019-01-19T16:08:25.685Z,78.42
2019-01-19T16:11:36.167Z,77.86
2019-01-19T16:14:57.390Z,78.34
2019-01-19T16:17:56.523Z,78.67
2019-01-19T16:20:51.990Z,79.75
2019-01-19T16:23:47.886Z,79.13
2019-01-19T16:26:37.204Z,78.79
2019-01-19T16:29:43.427Z,79.97
2019-01-19T16:32:36.720Z,79.07
2019-01-19T16:35:45.830Z,79.05
2019-01-19T16:38:37.911Z,79.39
2019-01-19T16:41:53.714Z,79.30
2019-01-19T16:45:07.979Z,79.28
2019-01-19T16:48:22.848Z,79.37
2019-01-19T16:51:32.248Z,79.94
2019-01-19T16:54:16.547Z,79.16
2019-01-19T16:57:28.232Z,79.84
2019-01-19T17:01:02.574Z,80.10
2019-01-19T17:04:28.214Z,79.87
2019-01-19T17:07:45.638Z,80.62
2019-01-19T17:10:59.076Z,80.30
2019-01-19T17:14:12.029Z,80.34
2019-01-19T17:17:03.828Z,80.08
2019-01-19T17:20:07.303Z,79.81
2019-01-19T17:23:16.568Z,79.76
2019-01-19T17:26:29.365Z,79.69
2019-01-19T17:29:09.242Z,81.05
2019-01-19T17:32:04.358Z,81.23
2019-01-19T17:35:10.477Z,81.62
2019-01-19T17:38:16.393Z,82.01
2019-01-19T17:41:21.103Z,82.58
2019-01-19T17:44:00.304Z,82.23
2019-01-19T17:47:05.175Z,82.61
2019-01-19T17:49:56.649Z,82.77
2019-01-19T17:52:51.634Z,82.86
2019-01-19T17:55:57.678Z,82.70
2019-01-19T17:59:03.672Z,82.45
2019-01-19T18:02:14.035Z,83.10
2019-01-19T18:05:36.294Z,83.24
2019-01-19T18:09:02.159Z,83.57
2019-01-19T18:11:50.858Z,83.70
2019-01-19T18:14:52.610Z,83.58
2019-01-19T18:17:43.386Z,84.28
2019-01-19T18:20:50.618Z,84.48
2019-01-19T18:24:01.398Z,84.51
2019-01-19T18:27:27.012Z,84.72
2019-01-19T18:30:43.570Z,85.11
2019-01-19T18:33:38.194Z,85.25
2019-01-19T18:36:41.883Z,85.28
2019-01-19T18:39:58.176Z,85.35
2019-01-19T18:43:15.075Z,85.38
2019-01-19T18:46:18.831Z,85.66
2019-01-19T18:49:25.063Z,86.01
2019-01-19T18:52:35.532Z,86.01
2019-01-19T18:55:19.444Z,86.01
2019-01-19T18:58:36.435Z,86.09
2019-01-19T19:01:58.727Z,86.47
2019-01-19T19:04:46.314Z,86.45
2019-01-19T19:07:40.594Z,86.52
2019-01-19T19:10:55.998Z,86.29
2019-01-19T19:13:51.680Z,86.47
2019-01-19T19:17:05.022Z,86.42
2019-01-19T19:20:11.592Z,86.21
2019-01-19T19:23:19.543Z,86.39
2019-01-19T19:26:21.435Z,86.14
2019-01-19T19:29:46.626Z,85.76
2019-01-19T19:32:41.521Z,85.53
2019-01-19T19:35:50.931Z,85.44
2019-01-19T19:38:55.794Z,85.01
2019-01-19T19:42:03.151Z,85.07
2019-01-19T19:45:13.554Z,84.92
2019-01-19T19:48:10.743Z,84.98
2019-01-19T19:51:24.923Z,84.93
2019-01-19T19:53:54.334Z,84.91
2019-01-19T19:56:21.788Z,85.13
2019-01-19T19:58:50.808Z,85.22
2019-01-19T20:01:19.856Z,84.97
2019-01-19T20:03:49.248Z,85.30
2019-01-19T20:06:18.593Z,85.51
2019-01-19T20:08:47.625Z,85.88
2019-01-19T20:11:16.668Z,85.53
2019-01-19T20:13:45.726Z,85.50
2019-01-19T20:16:15.190Z,85.01
2019-01-19T20:18:44.238Z,85.07
2019-01-19T20:21:13.271Z,84.99
2019-01-19T20:23:42.329Z,84.56
2019-01-19T20:26:12.202Z,84.59
2019-01-19T20:28:41.552Z,84.64
2019-01-19T20:31:10.898Z,84.39
2019-01-19T20:33:40.317Z,84.14
2019-01-19T20:36:09.368Z,84.20
2019-01-19T20:38:38.405Z,83.77
2019-01-19T20:41:07.437Z,83.94
2019-01-19T20:43:36.808Z,83.86
2019-01-19T20:46:06.711Z,84.06
2019-01-19T20:48:35.933Z,84.15
2019-01-19T20:51:05.013Z,83.96
2019-01-19T20:53:34.107Z,84.26
2019-01-19T20:56:03.128Z,83.67
2019-01-19T20:58:32.150Z,83.95
2019-01-19T21:01:01.245Z,84.05
2019-01-19T21:03:30.321Z,84.36
2019-01-19T21:05:59.651Z,84.74
2019-01-19T21:08:28.780Z,85.21
2019-01-19T21:10:57.808Z,85.07
2019-01-19T21:13:26.874Z,85.06
2019-01-19T21:15:56.268Z,85.36
2019-01-19T21:18:25.696Z,84.98
2019-01-19T21:20:55.046Z,84.58
2019-01-19T21:23:24.398Z,84.89
2019-01-19T21:25:53.432Z,85.17
2019-01-19T21:28:22.464Z,85.36
2019-01-19T21:30:51.540Z,85.38
2019-01-19T21:33:20.642Z,85.38
2019-01-19T21:35:49.885Z,85.68
2019-01-19T21:38:18.983Z,85.81
2019-01-19T21:40:48.025Z,86.00
2019-01-19T21:43:17.077Z,85.85
2019-01-19T21:45:46.081Z,85.98
2019-01-19T21:48:15.316Z,85.66
2019-01-19T21:50:44.713Z,85.92
2019-01-19T21:53:13.765Z,86.04
2019-01-19T21:55:43.136Z,86.05
2019-01-19T21:58:12.167Z,85.75
2019-01-19T22:00:41.191Z,85.65
2019-01-19T22:03:10.631Z,85.78
2019-01-19T22:05:40.016Z,86.18
2019-01-19T22:08:09.081Z,85.89
2019-01-19T22:10:46.155Z,85.73
2019-01-19T22:13:10.598Z,85.95
2019-01-19T22:15:39.629Z,86.13
2019-01-19T22:18:09.007Z,85.79
2019-01-19T22:20:38.087Z,85.20
2019-01-19T22:23:07.487Z,85.55
2019-01-19T22:25:36.542Z,85.38
2019-01-19T22:28:06.017Z,85.33
2019-01-19T22:30:35.087Z,85.79
2019-01-19T22:33:04.136Z,85.72
2019-01-19T22:35:33.142Z,85.89
2019-01-19T22:38:02.261Z,85.33
2019-01-19T22:40:31.366Z,85.33
2019-01-19T22:43:03.368Z,85.68
2019-01-19T22:45:32.485Z,85.68
2019-01-19T22:48:02.314Z,85.66
2019-01-19T22:50:31.631Z,85.38
2019-01-19T22:53:00.843Z,85.60
2019-01-19T22:55:29.974Z,85.20
2019-01-19T22:57:59.409Z,85.27
2019-01-19T23:00:58.102Z,85.67
2019-01-19T23:03:28.305Z,85.22
2019-01-19T23:05:57.336Z,85.21
2019-01-19T23:08:26.967Z,85.83
2019-01-19T23:11:01.143Z,85.67
2019-01-19T23:13:27.084Z,85.21
2019-01-19T23:15:56.129Z,85.53
2019-01-19T23:18:25.480Z,85.65
2019-01-19T23:20:54.778Z,86.19
2019-01-19T23:23:23.803Z,86.31
2019-01-19T23:25:52.832Z,86.35
2019-01-19T23:28:22.193Z,86.48
2019-01-19T23:30:54.012Z,86.33
2019-01-19T23:33:23.343Z,86.37
2019-01-19T23:35:53.053Z,86.61
2019-01-19T23:38:22.873Z,86.39
2019-01-19T23:40:52.410Z,86.48
2019-01-19T23:43:21.795Z,86.59
2019-01-19T23:45:52.119Z,86.71
2019-01-19T23:48:21.251Z,86.83
2019-01-19T23:50:50.643Z,87.12
2019-01-19T23:53:20.029Z,87.23
2019-01-19T23:55:53.271Z,87.43
2019-01-19T23:58:22.300Z,87.23
